Time;durP1;ratioP1;P1;durP2;ratioP2;P2;SDS_P1;SDS_P2;PMS_P1;PMS_P2;Temp;Humidity;BMP_temperature;BMP_pressure;BME280_temperature;BME280_humidity;BME280_pressure;Samples;Min_cycle;Max_cycle;Signal;HPM_P1;HPM_P2
2023/07/20 00:03:12;;;;;;;1.83;1.20;;;;;;;16.79;85.74;101146.00;6004788;23;20597;-68
2023/07/20 00:06:40;;;;;;;0.80;0.80;;;;;;;16.57;86.33;101143.94;6141689;28;20245;-67
2023/07/20 00:14:09;;;;;;;3.00;1.70;;;;;;;16.89;85.69;101143.13;6145146;28;20273;-66
2023/07/20 00:18:11;;;;;;;0.70;0.70;;;;;;;17.03;85.52;101139.69;6131790;28;20234;-66
2023/07/20 00:21:33;;;;;;;0.80;0.80;;;;;;;16.72;85.77;101136.81;6131307;28;20234;-67
2023/07/20 00:24:55;;;;;;;0.80;0.75;;;;;;;16.72;85.99;101142.25;6144791;28;20254;-67
2023/07/20 00:28:16;;;;;;;1.88;0.82;;;;;;;16.94;85.35;101145.34;6126254;28;20244;-66
2023/07/20 00:31:38;;;;;;;0.55;0.55;;;;;;;17.03;85.19;101149.75;6132773;28;20231;-66
2023/07/20 00:35:00;;;;;;;0.90;0.88;;;;;;;17.07;84.45;101151.94;6125689;23;20238;-66
2023/07/20 00:38:25;;;;;;;1.10;0.93;;;;;;;17.00;84.03;101145.47;6122751;28;20238;-66
2023/07/20 00:45:39;;;;;;;1.15;1.05;;;;;;;16.99;83.88;101137.47;5960934;28;20239;-67
2023/07/20 00:49:26;;;;;;;;;;;;;;;;;;;;;
2023/07/20 00:52:56;;;;;;;1.53;1.13;;;;;;;16.93;84.06;101132.72;5949468;29;20231;-66
2023/07/20 00:56:20;;;;;;;1.33;1.23;;;;;;;17.00;84.40;101144.66;5961846;29;20240;-65
2023/07/20 00:59:43;;;;;;;3.20;1.02;;;;;;;16.63;85.49;101139.69;5955729;29;20243;-66
2023/07/20 01:03:05;;;;;;;0.83;0.83;;;;;;;16.63;86.41;101143.25;5955631;29;20320;-65
2023/07/20 01:06:35;;;;;;;1.70;1.00;;;;;;;16.69;87.49;101142.59;6104754;23;20330;-66
2023/07/20 01:10:03;;;;;;;5.20;1.80;;;;;;;16.55;88.03;101139.69;6133457;28;20924;-66
2023/07/20 01:13:27;;;;;;;1.10;1.00;;;;;;;16.55;88.33;101151.44;6098338;28;20241;-67
2023/07/20 01:16:53;;;;;;;3.30;1.27;;;;;;;16.37;89.41;101144.38;6129335;28;20227;-68
2023/07/20 01:31:53;;;;;;;1.57;0.90;;;;;;;16.15;93.49;101139.56;6173996;28;20265;-65
2023/07/20 01:39:07;;;;;;;1.43;1.10;;;;;;;16.33;94.43;101134.84;6129976;28;20259;-65
2023/07/20 01:42:31;;;;;;;1.30;1.20;;;;;;;16.28;94.17;101132.63;6104434;28;20584;-66
2023/07/20 01:45:52;;;;;;;1.73;1.57;;;;;;;16.13;94.49;101133.44;6146264;23;20619;-65
2023/07/20 01:49:20;;;;;;;2.67;2.17;;;;;;;16.20;95.33;101135.34;6163222;28;20234;-65
2023/07/20 01:52:42;;;;;;;1.87;1.77;;;;;;;16.34;95.49;101136.53;6112870;23;20242;-65
2023/07/20 01:56:03;;;;;;;1.63;1.53;;;;;;;16.20;95.30;101129.03;6140104;28;20558;-65
2023/07/20 01:59:25;;;;;;;1.37;1.27;;;;;;;16.47;95.61;101126.88;6111837;28;20242;-66
2023/07/20 02:02:46;;;;;;;1.50;1.40;;;;;;;16.34;95.56;101131.97;6141189;28;20238;-65
2023/07/20 02:06:09;;;;;;;2.10;1.53;;;;;;;16.39;95.56;101124.16;6127583;28;20235;-65
2023/07/20 02:09:33;;;;;;;1.60;1.50;;;;;;;16.41;95.29;101126.69;6171049;23;20337;-65
2023/07/20 02:12:56;;;;;;;1.40;1.33;;;;;;;16.53;94.79;101134.41;6110454;28;20317;-65
2023/07/20 02:16:18;;;;;;;1.37;1.00;;;;;;;16.13;95.83;101136.16;6143983;23;20238;-66
2023/07/20 02:19:39;;;;;;;2.30;1.50;;;;;;;16.41;95.97;101145.75;6150215;28;20326;-66
2023/07/20 02:23:04;;;;;;;1.30;1.20;;;;;;;16.24;95.97;101144.00;6125590;28;20234;-66
2023/07/20 02:26:26;;;;;;;1.53;1.43;;;;;;;15.78;96.41;101146.22;6124162;28;20320;-65
2023/07/20 02:29:56;;;;;;;1.17;0.93;;;;;;;15.99;97.72;101143.09;6139421;28;20503;-66
2023/07/20 02:33:38;;;;;;;1.93;1.73;;;;;;;15.97;97.99;101136.97;6140679;28;20326;-66
2023/07/20 02:37:00;;;;;;;1.93;1.20;;;;;;;16.20;97.86;101142.63;6134635;28;20239;-66
2023/07/20 02:40:23;;;;;;;1.20;1.10;;;;;;;16.29;97.88;101144.38;6124393;28;20239;-66
2023/07/20 02:43:45;;;;;;;4.43;1.43;;;;;;;16.25;98.05;101149.28;6115612;28;20258;-65
2023/07/20 02:47:06;;;;;;;0.80;0.80;;;;;;;16.27;97.70;101146.41;6121728;28;20243;-66
2023/07/20 02:50:28;;;;;;;2.33;2.13;;;;;;;16.30;97.72;101152.34;6145786;28;20268;-67
2023/07/20 02:53:50;;;;;;;0.97;0.90;;;;;;;16.38;96.93;101146.94;6117304;28;20231;-65
2023/07/20 02:57:13;;;;;;;1.48;1.38;;;;;;;16.32;97.26;101144.03;6138832;28;20247;-64
2023/07/20 03:00:35;;;;;;;1.92;1.20;;;;;;;16.27;97.02;101144.50;6137692;28;20333;-66
2023/07/20 03:03:57;;;;;;;1.42;1.33;;;;;;;16.25;97.07;101143.00;6157265;28;20238;-66
2023/07/20 03:07:21;;;;;;;2.93;1.53;;;;;;;16.14;96.86;101148.75;6092631;28;20580;-66
2023/07/20 03:10:47;;;;;;;1.43;1.33;;;;;;;16.14;97.45;101154.19;6120933;28;20238;-66
2023/07/20 03:14:12;;;;;;;1.00;1.00;;;;;;;16.00;97.04;101156.50;6127596;28;20619;-65
2023/07/20 03:17:40;;;;;;;1.60;1.50;;;;;;;16.14;97.53;101152.31;6130423;28;20246;-66
2023/07/20 03:21:01;;;;;;;1.23;1.13;;;;;;;16.25;97.44;101157.44;6115002;28;20230;-65
2023/07/20 03:24:30;;;;;;;1.53;1.43;;;;;;;16.23;97.38;101153.19;6127225;28;20235;-67
2023/07/20 03:27:58;;;;;;;1.20;1.10;;;;;;;15.99;97.90;101162.97;6123491;28;20225;-66
2023/07/20 03:31:24;;;;;;;1.73;1.63;;;;;;;16.02;97.94;101159.91;6100836;28;20325;-66
2023/07/20 03:34:45;;;;;;;2.33;2.13;;;;;;;16.12;98.42;101162.53;6112221;28;20509;-65
2023/07/20 03:38:09;;;;;;;1.33;1.30;;;;;;;16.04;97.94;101167.94;6142070;28;20238;-66
2023/07/20 03:41:31;;;;;;;1.13;1.13;;;;;;;16.02;97.81;101162.63;6124889;23;20234;-65
2023/07/20 03:44:57;;;;;;;1.50;1.40;;;;;;;15.94;97.78;101164.47;6143682;28;20593;-66
2023/07/20 03:48:35;;;;;;;0.97;0.87;;;;;;;16.02;97.79;101166.38;6106336;28;20238;-66
2023/07/20 03:51:59;;;;;;;1.43;1.33;;;;;;;16.02;97.88;101170.78;6148588;28;20233;-66
2023/07/20 03:59:02;;;;;;;2.83;1.27;;;;;;;15.92;98.04;101163.78;6122009;23;20242;-65
2023/07/20 04:02:25;;;;;;;1.50;1.40;;;;;;;15.86;97.98;101157.13;6096162;28;20242;-66
2023/07/20 04:05:48;;;;;;;1.70;1.47;;;;;;;16.10;97.64;101167.28;6115592;23;20235;-66
2023/07/20 04:09:09;;;;;;;7.23;5.03;;;;;;;16.26;97.72;101170.03;6119709;28;20238;-65
2023/07/20 04:12:30;;;;;;;3.03;1.83;;;;;;;16.23;97.87;101166.81;6081783;28;20246;-65
2023/07/20 04:15:54;;;;;;;2.25;2.05;;;;;;;16.36;97.42;101172.59;6124979;28;20576;-66
2023/07/20 04:19:17;;;;;;;2.60;2.40;;;;;;;16.24;97.56;101172.06;6108272;28;20504;-66
2023/07/20 04:22:40;;;;;;;1.93;1.83;;;;;;;16.27;97.31;101179.06;6132343;28;20242;-65
2023/07/20 04:26:06;;;;;;;3.60;3.28;;;;;;;16.48;97.51;101182.19;6093883;28;20239;-66
2023/07/20 04:29:27;;;;;;;5.90;4.57;;;;;;;16.59;97.16;101181.88;6090037;28;20275;-66
2023/07/20 04:32:49;;;;;;;4.30;4.00;;;;;;;16.56;96.88;101183.06;6071996;28;20569;-66
2023/07/20 04:36:16;;;;;;;3.60;3.30;;;;;;;16.63;97.20;101188.69;6119554;23;20334;-67
2023/07/20 04:39:38;;;;;;;2.23;2.00;;;;;;;16.54;96.79;101182.38;6116806;28;20237;-65
2023/07/20 04:43:12;;;;;;;1.70;1.60;;;;;;;16.47;96.51;101186.75;6138592;28;20243;-65
2023/07/20 04:46:33;;;;;;;2.30;1.60;;;;;;;16.36;96.27;101180.75;6152964;28;20234;-67
2023/07/20 04:50:37;;;;;;;2.37;2.13;;;;;;;16.33;96.43;101184.69;6145413;28;20516;-66
2023/07/20 04:53:58;;;;;;;1.83;1.40;;;;;;;16.44;96.59;101184.38;6165626;28;20234;-66
2023/07/20 05:01:11;;;;;;;1.57;1.30;;;;;;;16.47;96.41;101183.19;6119358;28;20238;-65
2023/07/20 05:04:33;;;;;;;2.43;1.57;;;;;;;16.49;95.97;101182.03;6116847;28;20348;-66
2023/07/20 05:08:00;;;;;;;1.43;1.10;;;;;;;16.57;95.71;101183.91;6170370;23;20238;-65
2023/07/20 05:11:21;;;;;;;1.40;1.30;;;;;;;16.78;95.09;101176.13;6134400;28;20238;-66
2023/07/20 05:14:46;;;;;;;2.10;1.47;;;;;;;16.94;94.82;101178.84;6094325;28;20515;-66
2023/07/20 05:18:19;;;;;;;2.50;1.17;;;;;;;17.01;94.08;101177.16;6134175;28;20229;-65
2023/07/20 05:21:41;;;;;;;1.67;1.27;;;;;;;16.66;94.18;101181.06;6127582;28;20349;-65
2023/07/20 05:25:04;;;;;;;1.40;1.30;;;;;;;16.58;94.32;101182.91;6136370;28;20234;-64
2023/07/20 05:28:30;;;;;;;3.07;1.00;;;;;;;16.81;94.38;101177.66;6138403;28;20242;-65
2023/07/20 05:32:04;;;;;;;1.60;1.50;;;;;;;16.80;94.56;101176.81;6185777;23;20679;-65
2023/07/20 05:35:26;;;;;;;1.75;1.05;;;;;;;16.88;94.22;101174.09;6154314;28;20261;-65
2023/07/20 05:38:49;;;;;;;1.87;1.57;;;;;;;16.59;94.62;101180.00;6112985;28;20241;-66
2023/07/20 05:42:10;;;;;;;1.70;1.60;;;;;;;16.59;94.58;101184.59;6151841;28;20550;-67
2023/07/20 05:45:35;;;;;;;1.53;1.43;;;;;;;16.71;94.18;101178.66;6195682;23;20268;-66
2023/07/20 05:49:48;;;;;;;2.60;2.17;;;;;;;16.73;94.20;101183.94;6122863;28;20577;-66
2023/07/20 05:53:43;;;;;;;2.07;1.93;;;;;;;16.57;94.72;101186.63;6114030;23;20303;-66
2023/07/20 05:57:10;;;;;;;1.97;1.67;;;;;;;16.81;95.25;101183.97;6119928;28;20246;-66
2023/07/20 06:04:40;;;;;;;2.20;1.63;;;;;;;17.00;93.68;101188.22;6156042;28;20250;-67
2023/07/20 06:11:39;;;;;;;1.87;1.77;;;;;;;17.26;91.68;101195.19;6089551;28;20307;-66
2023/07/20 06:18:48;;;;;;;1.77;1.67;;;;;;;17.35;90.15;101196.03;6090558;29;20595;-65
2023/07/20 06:22:11;;;;;;;2.00;1.83;;;;;;;16.80;89.88;101198.59;6051759;28;20330;-66
2023/07/20 06:25:33;;;;;;;2.35;1.30;;;;;;;17.07;90.67;101201.00;6103712;29;20240;-65
2023/07/20 06:29:11;;;;;;;1.40;1.30;;;;;;;17.21;89.76;101204.94;6063666;29;20231;-64
2023/07/20 06:32:33;;;;;;;1.40;1.30;;;;;;;17.27;88.74;101204.22;6083320;29;20432;-65
2023/07/20 06:36:00;;;;;;;5.10;1.83;;;;;;;17.81;87.66;101206.22;6093410;29;20247;-66
2023/07/20 06:43:06;;;;;;;1.40;1.30;;;;;;;18.54;84.17;101208.66;6104787;28;20252;-66
2023/07/20 06:50:12;;;;;;;1.20;1.13;;;;;;;17.82;83.41;101210.63;6163659;23;20818;-65
2023/07/20 06:53:36;;;;;;;0.75;0.75;;;;;;;17.95;82.95;101201.91;6091268;28;20230;-65
2023/07/20 06:56:58;;;;;;;1.92;1.35;;;;;;;17.77;81.67;101201.28;6096892;28;20235;-66
2023/07/20 07:00:21;;;;;;;1.88;1.20;;;;;;;17.63;81.20;101210.19;6136404;28;20239;-65
2023/07/20 07:03:47;;;;;;;0.82;0.82;;;;;;;17.66;80.80;101198.91;6098947;28;20607;-65
2023/07/20 07:07:09;;;;;;;2.28;1.25;;;;;;;18.10;80.16;101203.72;6130846;28;20239;-67
2023/07/20 07:10:31;;;;;;;2.13;1.13;;;;;;;18.28;79.61;101200.72;6108956;28;21750;-67
2023/07/20 07:13:52;;;;;;;1.85;0.95;;;;;;;18.27;78.54;101208.06;6141019;28;20513;-67
2023/07/20 07:20:56;;;;;;;0.88;0.80;;;;;;;18.74;75.58;101196.22;6114369;28;20235;-65
2023/07/20 07:24:18;;;;;;;1.92;0.73;;;;;;;18.52;73.15;101208.84;6134683;28;20577;-66
2023/07/20 07:27:42;;;;;;;1.27;0.90;;;;;;;18.52;71.78;101197.94;6109771;28;20637;-67
2023/07/20 07:31:06;;;;;;;1.00;0.88;;;;;;;18.63;71.34;101210.31;6129199;28;20258;-66
2023/07/20 07:34:29;;;;;;;1.50;1.17;;;;;;;18.47;70.79;101204.94;6107478;28;20939;-67
2023/07/20 07:38:11;;;;;;;1.42;0.70;;;;;;;18.51;70.33;101203.53;6102763;28;20250;-67
2023/07/20 07:41:33;;;;;;;3.95;2.05;;;;;;;18.83;69.81;101187.81;6121989;23;20620;-66
2023/07/20 07:44:54;;;;;;;1.33;1.13;;;;;;;18.68;71.16;101207.88;6147067;28;20246;-65
2023/07/20 07:48:17;;;;;;;1.95;1.50;;;;;;;18.41;72.68;101219.28;6148975;28;20237;-66
2023/07/20 07:51:39;;;;;;;3.97;1.98;;;;;;;18.22;73.07;101223.28;6099188;28;20558;-66
2023/07/20 07:55:01;;;;;;;4.95;1.33;;;;;;;18.38;72.80;101228.66;6134943;28;20649;-66
2023/07/20 07:58:23;;;;;;;1.90;1.35;;;;;;;18.82;72.21;101218.88;6147242;28;20615;-65
2023/07/20 08:01:44;;;;;;;1.55;1.00;;;;;;;18.96;70.48;101220.00;6126199;28;20234;-66
2023/07/20 08:05:06;;;;;;;1.63;1.52;;;;;;;19.06;69.34;101204.19;6132162;28;20259;-66
2023/07/20 08:08:29;;;;;;;8.23;1.95;;;;;;;18.63;69.37;101227.53;6124936;28;20266;-66
2023/07/20 08:15:21;;;;;;;4.45;1.50;;;;;;;18.68;69.08;101224.28;6138290;28;20249;-66
2023/07/20 08:18:45;;;;;;;3.55;1.60;;;;;;;19.24;67.52;101221.13;6132058;28;20230;-66
2023/07/20 08:22:07;;;;;;;2.95;1.42;;;;;;;19.50;67.20;101218.88;6105206;23;20246;-65
2023/07/20 08:25:29;;;;;;;1.60;1.50;;;;;;;19.49;67.00;101217.16;6124704;28;20258;-65
2023/07/20 08:28:51;;;;;;;3.17;1.85;;;;;;;19.54;66.91;101222.94;6118160;28;20262;-66
2023/07/20 08:32:14;;;;;;;3.40;1.63;;;;;;;19.45;65.01;101217.72;6099239;28;20238;-66
2023/07/20 08:35:42;;;;;;;2.80;2.35;;;;;;;19.57;64.87;101222.56;6093970;29;20246;-65
2023/07/20 08:39:04;;;;;;;2.80;2.13;;;;;;;20.02;65.05;101213.38;6109393;28;20250;-64
2023/07/20 08:42:27;;;;;;;1.92;1.65;;;;;;;20.33;63.32;101218.66;6141332;28;20234;-67
2023/07/20 08:45:51;;;;;;;2.55;1.42;;;;;;;20.35;61.93;101231.13;6129722;28;20263;-67
2023/07/20 08:49:13;;;;;;;4.45;1.77;;;;;;;20.49;61.54;101230.25;6108090;28;20246;-67
2023/07/20 08:52:35;;;;;;;1.55;1.25;;;;;;;19.61;65.43;101262.19;6087290;28;20684;-65
2023/07/20 08:56:00;;;;;;;3.30;1.38;;;;;;;18.54;72.43;101244.16;6140939;28;20366;-66
2023/07/20 08:59:42;;;;;;;2.42;1.95;;;;;;;18.01;76.01;101253.91;6109586;28;20273;-66
2023/07/20 09:03:15;;;;;;;5.82;2.10;;;;;;;18.26;77.27;101249.19;6134971;28;20510;-64
2023/07/20 09:07:04;;;;;;;1.48;1.38;;;;;;;18.70;77.92;101241.34;6116795;28;20226;-67
2023/07/20 09:10:25;;;;;;;3.22;2.88;;;;;;;19.34;77.39;101242.81;6058653;29;20260;-65
2023/07/20 09:13:47;;;;;;;3.30;2.42;;;;;;;19.24;75.34;101244.88;6042339;29;20694;-65
2023/07/20 09:17:14;;;;;;;4.00;1.75;;;;;;;19.57;73.36;101249.06;6078456;29;20243;-66
2023/07/20 09:20:37;;;;;;;2.67;2.03;;;;;;;20.43;71.75;101232.91;5961931;29;20239;-66
2023/07/20 09:23:59;;;;;;;2.85;1.95;;;;;;;20.38;68.44;101229.91;6130034;23;20242;-67
2023/07/20 09:27:20;;;;;;;2.72;1.27;;;;;;;20.03;66.95;101234.22;6119738;28;20257;-66
2023/07/20 09:30:42;;;;;;;1.65;1.50;;;;;;;20.35;66.16;101243.97;6135298;28;20242;-65
2023/07/20 09:34:06;;;;;;;3.97;2.42;;;;;;;19.45;70.05;101272.41;6139277;28;20613;-66
2023/07/20 09:40:48;;;;;;;3.67;1.38;;;;;;;18.38;77.86;101280.53;6172378;23;20235;-65
2023/07/20 09:44:11;;;;;;;3.00;1.48;;;;;;;18.34;78.73;101281.91;6114978;28;20247;-66
2023/07/20 09:47:43;;;;;;;1.35;1.25;;;;;;;18.38;79.25;101284.13;6120996;28;20585;-67
2023/07/20 09:51:08;;;;;;;1.48;0.75;;;;;;;18.54;76.98;101272.34;6103903;28;20234;-66
2023/07/20 09:54:32;;;;;;;1.23;1.13;;;;;;;19.07;75.54;101266.03;6083508;28;20230;-65
2023/07/20 09:57:55;;;;;;;1.00;0.90;;;;;;;19.64;73.90;101259.09;6103348;28;20254;-66
2023/07/20 10:04:48;;;;;;;2.65;0.90;;;;;;;19.51;71.41;101268.94;6139151;28;20854;-65
2023/07/20 10:08:18;;;;;;;1.58;1.08;;;;;;;19.67;70.08;101253.22;6155585;28;20238;-65
2023/07/20 10:11:45;;;;;;;1.33;0.70;;;;;;;19.44;70.24;101254.34;6132326;28;20235;-65
2023/07/20 10:15:13;;;;;;;1.80;0.85;;;;;;;19.56;69.81;101250.09;6100476;28;20239;-67
2023/07/20 10:18:59;;;;;;;4.05;1.10;;;;;;;19.79;68.79;101239.97;6082129;28;20243;-64
2023/07/20 10:22:26;;;;;;;0.70;0.70;;;;;;;19.88;68.02;101234.19;6107222;28;20348;-66
2023/07/20 10:25:54;;;;;;;1.10;1.00;;;;;;;20.59;67.98;101238.16;6197885;23;20607;-66
2023/07/20 10:29:19;;;;;;;0.90;0.85;;;;;;;20.59;67.48;101232.66;6131677;28;20605;-67
2023/07/20 10:33:02;;;;;;;3.22;1.35;;;;;;;20.16;67.39;101237.16;6107242;28;20230;-67
2023/07/20 10:36:33;;;;;;;1.75;1.40;;;;;;;20.35;66.66;101249.44;6144933;28;20246;-68
2023/07/20 10:39:57;;;;;;;2.58;2.08;;;;;;;20.21;65.16;101232.00;6160642;23;20230;-64
2023/07/20 10:43:23;;;;;;;0.73;0.70;;;;;;;21.26;64.46;101241.44;6137524;28;20589;-64
2023/07/20 10:46:46;;;;;;;1.38;1.27;;;;;;;21.21;65.20;101233.84;6115611;28;20239;-69
2023/07/20 10:50:08;;;;;;;4.20;1.17;;;;;;;20.46;63.36;101233.34;6119179;28;20329;-67
2023/07/20 10:53:29;;;;;;;1.30;0.80;;;;;;;20.78;63.62;101242.19;6155173;28;20567;-69
2023/07/20 10:56:51;;;;;;;1.38;0.73;;;;;;;21.49;62.21;101245.69;6103188;28;20234;-69
2023/07/20 11:00:22;;;;;;;1.23;0.90;;;;;;;21.96;62.01;101245.03;6116314;28;20243;-69
2023/07/20 11:03:51;;;;;;;3.20;1.27;;;;;;;20.93;62.52;101245.72;6103430;28;20476;-69
2023/07/20 11:07:19;;;;;;;2.33;1.10;;;;;;;20.56;63.56;101253.09;6145038;28;20234;-66
2023/07/20 11:10:41;;;;;;;1.58;1.08;;;;;;;20.65;64.59;101251.94;6131016;28;20242;-68
2023/07/20 11:14:24;;;;;;;1.33;1.05;;;;;;;20.49;64.96;101251.28;6130232;28;20689;-70
2023/07/20 11:17:49;;;;;;;1.30;0.82;;;;;;;20.73;65.56;101273.72;6110694;28;20241;-67
2023/07/20 11:21:12;;;;;;;3.83;1.10;;;;;;;21.44;63.22;101261.03;6113984;23;20234;-67
2023/07/20 11:24:33;;;;;;;0.50;0.50;;;;;;;21.01;60.57;101289.44;6133426;28;20222;-68
2023/07/20 11:27:56;;;;;;;0.50;0.50;;;;;;;20.75;61.40;101281.78;6104118;28;20238;-68
2023/07/20 11:31:29;;;;;;;0.50;0.50;;;;;;;20.73;60.73;101278.38;6074791;28;20231;-69
2023/07/20 11:34:55;;;;;;;1.17;0.55;;;;;;;21.00;60.25;101279.53;6184411;23;20239;-69
2023/07/20 11:38:16;;;;;;;0.60;0.52;;;;;;;20.95;59.52;101271.03;6128153;28;20249;-68
2023/07/20 11:45:33;;;;;;;0.88;0.50;;;;;;;21.84;58.18;101267.75;5978390;29;20251;-68
2023/07/20 11:49:04;;;;;;;0.80;0.60;;;;;;;22.00;57.08;101271.03;5955095;29;20235;-67
2023/07/20 11:52:46;;;;;;;;;;;;;;;;;;;;;
2023/07/20 11:56:09;;;;;;;1.55;0.60;;;;;;;22.49;56.62;101264.56;5973672;29;20243;-67
2023/07/20 11:59:31;;;;;;;4.85;1.88;;;;;;;23.31;55.95;101257.00;6092641;23;20240;-67
2023/07/20 12:02:54;;;;;;;1.17;0.80;;;;;;;22.60;55.48;101266.75;6124710;28;20250;-68
2023/07/20 12:06:16;;;;;;;1.85;0.70;;;;;;;22.92;56.04;101268.78;6135447;23;20581;-68
2023/07/20 12:10:04;;;;;;;4.03;0.80;;;;;;;22.41;56.81;101256.47;6143046;28;20242;-67
2023/07/20 12:13:44;;;;;;;1.63;1.08;;;;;;;23.35;55.67;101261.06;6108592;28;20678;-67
2023/07/20 12:17:09;;;;;;;4.10;0.88;;;;;;;23.61;55.11;101247.31;6138188;28;20233;-66
2023/07/20 12:24:24;;;;;;;5.05;0.68;;;;;;;22.58;55.20;101264.19;6028410;29;20267;-66
2023/07/20 12:27:48;;;;;;;0.85;0.60;;;;;;;22.16;55.98;101254.22;5981259;29;20235;-68
2023/07/20 12:31:10;;;;;;;2.90;1.25;;;;;;;21.69;57.40;101273.31;5989618;29;20239;-68
2023/07/20 12:34:32;;;;;;;2.80;0.70;;;;;;;21.53;58.55;101270.00;5994219;29;20562;-68
2023/07/20 12:37:53;;;;;;;5.68;1.30;;;;;;;21.16;59.02;101291.16;5950643;29;20255;-68
2023/07/20 12:41:20;;;;;;;1.58;0.68;;;;;;;21.60;58.69;101260.75;5963801;29;20782;-69
2023/07/20 12:45:13;;;;;;;2.42;1.27;;;;;;;21.79;58.61;101260.06;6016919;29;20391;-67
2023/07/20 12:48:44;;;;;;;3.00;0.90;;;;;;;22.17;57.69;101258.66;5997112;29;20250;-69
2023/07/20 12:55:48;;;;;;;3.80;1.33;;;;;;;21.90;58.66;101262.31;6088877;29;20235;-67
2023/07/20 12:59:10;;;;;;;1.17;0.93;;;;;;;21.94;58.39;101263.59;6068783;28;20239;-67
2023/07/20 13:02:33;;;;;;;0.90;0.50;;;;;;;22.35;58.01;101262.78;6071658;29;20560;-69
2023/07/20 13:05:57;;;;;;;2.40;0.77;;;;;;;22.53;56.53;101265.84;6098937;29;20259;-67
2023/07/20 13:09:21;;;;;;;0.93;0.85;;;;;;;23.27;53.67;101250.22;6050575;23;20242;-67
2023/07/20 13:12:43;;;;;;;0.50;0.50;;;;;;;22.59;53.81;101256.81;6020648;28;20268;-67
2023/07/20 13:16:05;;;;;;;1.40;0.82;;;;;;;23.96;50.77;101254.28;6015416;28;20262;-66
2023/07/20 13:19:27;;;;;;;2.05;0.93;;;;;;;25.85;47.71;101246.09;6037459;28;20249;-67
2023/07/20 13:23:14;;;;;;;0.40;0.40;;;;;;;27.67;43.01;101234.63;6026947;28;20237;-67
2023/07/20 13:26:41;;;;;;;2.33;0.75;;;;;;;28.50;40.93;101244.59;5958422;29;20593;-67
2023/07/20 13:30:06;;;;;;;1.50;0.82;;;;;;;28.17;40.52;101254.41;5978459;29;20252;-66
2023/07/20 13:33:29;;;;;;;1.45;1.30;;;;;;;24.41;46.79;101255.25;5941703;29;20240;-65
2023/07/20 13:36:50;;;;;;;1.50;0.95;;;;;;;25.91;44.24;101254.34;5957316;29;20247;-66
2023/07/20 13:40:16;;;;;;;0.80;0.80;;;;;;;28.43;40.63;101245.56;5954901;29;20279;-66
2023/07/20 13:43:38;;;;;;;1.98;0.80;;;;;;;28.73;40.36;101234.28;5957674;29;20339;-66
2023/07/20 13:46:59;;;;;;;1.50;0.60;;;;;;;27.90;41.30;101238.47;5940371;29;20256;-66
2023/07/20 13:50:30;;;;;;;1.67;0.65;;;;;;;28.14;41.54;101245.75;5962822;29;20332;-67
2023/07/20 13:57:24;;;;;;;1.60;1.50;;;;;;;25.77;45.83;101252.78;6163206;28;20263;-67
2023/07/20 14:00:45;;;;;;;1.65;0.88;;;;;;;23.40;49.75;101261.28;6152303;28;20310;-67
2023/07/20 14:04:32;;;;;;;1.35;0.55;;;;;;;24.96;48.18;101260.16;6117886;28;20239;-66
2023/07/20 14:07:53;;;;;;;1.42;0.47;;;;;;;25.76;46.65;101258.53;6151121;28;20242;-67
2023/07/20 14:11:17;;;;;;;2.13;0.82;;;;;;;24.78;47.99;101265.56;6125849;28;20250;-67
2023/07/20 14:14:40;;;;;;;0.82;0.60;;;;;;;25.15;46.31;101266.63;6158402;28;20234;-67
2023/07/20 14:22:14;;;;;;;;;;;;;;;;;;;;;
2023/07/20 14:25:40;;;;;;;1.25;1.10;;;;;;;24.92;47.29;101263.56;6134007;28;20239;-67
2023/07/20 14:29:02;;;;;;;3.55;1.25;;;;;;;24.46;48.21;101253.56;6131318;28;20239;-65
2023/07/20 14:32:57;;;;;;;0.50;0.50;;;;;;;24.33;47.61;101261.84;6116379;28;20639;-67
2023/07/20 14:36:20;;;;;;;1.25;0.70;;;;;;;24.69;46.94;101254.94;6137525;28;20234;-67
2023/07/20 14:39:41;;;;;;;8.27;1.42;;;;;;;24.69;47.64;101266.81;6141913;28;20789;-67
2023/07/20 14:43:15;;;;;;;;;;;;;;;;;;;;;
2023/07/20 14:46:37;;;;;;;2.50;0.93;;;;;;;24.70;47.54;101260.22;6122865;28;20629;-66
2023/07/20 14:50:03;;;;;;;0.73;0.45;;;;;;;24.84;46.52;101264.66;6181906;23;20239;-68
2023/07/20 14:53:28;;;;;;;2.35;1.15;;;;;;;25.30;46.05;101261.63;6099995;28;20258;-68
2023/07/20 14:56:58;;;;;;;1.35;0.77;;;;;;;25.21;47.12;101254.69;6090961;23;20249;-67
2023/07/20 15:00:20;;;;;;;0.75;0.75;;;;;;;25.32;47.57;101267.78;6111785;23;20302;-67
2023/07/20 15:04:16;;;;;;;2.13;0.60;;;;;;;24.50;47.68;101262.22;6085877;28;20602;-66
2023/07/20 15:08:06;;;;;;;1.73;0.98;;;;;;;23.79;47.92;101255.78;6106525;28;20340;-67
2023/07/20 15:11:43;;;;;;;1.02;0.93;;;;;;;25.22;47.27;101265.50;6039948;28;20247;-67
2023/07/20 15:19:28;;;;;;;2.10;1.60;;;;;;;23.71;49.43;101256.84;6038180;28;20555;-68
2023/07/20 15:34:42;;;;;;;1.60;1.50;;;;;;;22.88;52.83;101254.56;6070242;28;20227;-66
2023/07/20 15:45:55;;;;;;;2.65;1.20;;;;;;;24.28;49.03;101242.34;6123784;23;20644;-68
2023/07/20 15:53:13;;;;;;;4.05;1.10;;;;;;;23.77;46.61;101257.91;6131607;23;20318;-67
2023/07/20 15:56:34;;;;;;;1.17;0.95;;;;;;;23.31;49.03;101249.59;6126022;23;20262;-65
2023/07/20 15:59:56;;;;;;;1.63;0.98;;;;;;;22.91;49.70;101258.81;6157785;28;20234;-66
2023/07/20 16:03:18;;;;;;;1.67;0.80;;;;;;;23.44;49.22;101257.91;6147939;28;20239;-66
2023/07/20 16:06:40;;;;;;;1.35;1.15;;;;;;;23.69;47.41;101239.69;6154623;28;20585;-67
2023/07/20 16:10:02;;;;;;;1.23;0.88;;;;;;;23.98;47.68;101251.31;6139426;28;20226;-66
2023/07/20 16:13:24;;;;;;;1.05;0.90;;;;;;;23.62;48.17;101251.75;6137853;28;20234;-67
2023/07/20 16:16:45;;;;;;;1.92;0.85;;;;;;;23.54;48.13;101247.31;6153310;28;20321;-66
2023/07/20 16:20:10;;;;;;;1.70;1.05;;;;;;;24.28;47.43;101247.88;6143519;28;20235;-66
2023/07/20 16:23:32;;;;;;;1.38;1.27;;;;;;;24.13;48.48;101244.53;6154894;28;20242;-67
2023/07/20 16:26:53;;;;;;;2.05;0.90;;;;;;;23.64;47.65;101236.72;6132667;28;20742;-66
2023/07/20 16:30:15;;;;;;;0.55;0.45;;;;;;;23.22;48.26;101244.53;6156931;28;20541;-66
2023/07/20 16:33:37;;;;;;;1.52;0.85;;;;;;;23.09;49.12;101250.84;6161337;28;20235;-66
2023/07/20 16:37:02;;;;;;;0.52;0.47;;;;;;;23.36;48.62;101246.25;6153514;28;20659;-66
2023/07/20 16:40:26;;;;;;;3.40;1.60;;;;;;;23.11;49.60;101237.72;6151842;28;20238;-66
2023/07/20 16:44:01;;;;;;;2.97;2.50;;;;;;;23.09;49.84;101239.00;6148999;28;20242;-66
2023/07/20 16:47:47;;;;;;;7.72;5.18;;;;;;;23.21;49.98;101245.56;6140767;28;20324;-66
2023/07/20 16:51:08;;;;;;;1.95;1.27;;;;;;;22.88;51.65;101240.00;6145253;28;22655;-66
2023/07/20 16:54:32;;;;;;;5.97;3.80;;;;;;;23.70;51.47;101240.53;6157299;28;20230;-66
2023/07/20 16:57:55;;;;;;;4.10;2.67;;;;;;;23.52;51.03;101230.16;6152641;28;20608;-66
2023/07/20 17:01:19;;;;;;;3.30;2.45;;;;;;;23.26;52.02;101241.09;6147136;28;20604;-65
2023/07/20 17:04:40;;;;;;;1.88;1.60;;;;;;;22.76;52.36;101234.22;6143397;28;20234;-66
2023/07/20 17:08:07;;;;;;;6.03;2.03;;;;;;;22.79;52.76;101233.84;6143102;28;20369;-66
2023/07/20 17:11:31;;;;;;;6.38;5.28;;;;;;;22.72;53.26;101230.22;6148133;28;20246;-66
2023/07/20 17:14:55;;;;;;;9.70;4.25;;;;;;;22.68;52.47;101230.81;6131035;28;20513;-66
2023/07/20 17:18:20;;;;;;;11.13;5.75;;;;;;;23.13;51.44;101227.34;6150043;28;20237;-66
2023/07/20 17:21:45;;;;;;;6.25;5.38;;;;;;;23.59;51.16;101227.41;6151418;28;20242;-66
2023/07/20 17:25:18;;;;;;;4.38;3.00;;;;;;;23.43;51.90;101223.16;6148387;28;20623;-66
2023/07/20 17:28:45;;;;;;;4.78;3.53;;;;;;;22.98;52.45;101218.44;6149279;28;21202;-67
2023/07/20 17:32:17;;;;;;;1.50;1.27;;;;;;;22.45;52.54;101228.38;6145706;28;20328;-66
2023/07/20 17:35:43;;;;;;;1.23;1.05;;;;;;;22.36;54.99;101232.38;6150309;28;20242;-69
2023/07/20 17:39:26;;;;;;;4.38;1.30;;;;;;;21.93;54.26;101222.59;6135165;28;20608;-69
2023/07/20 17:42:51;;;;;;;1.80;1.17;;;;;;;21.64;54.78;101226.38;6164380;28;20242;-70
2023/07/20 17:46:18;;;;;;;2.67;1.20;;;;;;;21.94;55.83;101216.94;6157941;28;20243;-68
2023/07/20 17:50:24;;;;;;;4.25;2.47;;;;;;;21.88;55.36;101217.69;6165654;28;20946;-69
2023/07/20 17:54:16;;;;;;;0.95;0.82;;;;;;;21.41;55.46;101217.53;6144821;28;20505;-68
2023/07/20 17:57:52;;;;;;;2.20;1.45;;;;;;;21.33;55.38;101223.16;6166349;28;20430;-69